Time;durP1;ratioP1;P1;durP2;ratioP2;P2;SDS_P1;SDS_P2;PMS_P1;PMS_P2;Temp;Humidity;BMP_temperature;BMP_pressure;BME280_temperature;BME280_humidity;BME280_pressure;Samples;Min_cycle;Max_cycle;Signal;HPM_P1;HPM_P2
2023/01/14 00:01:13;;;;;;;10.77;3.08;;;11.50;73.40;;;;;;4944180;28;20085;-73
2023/01/14 00:03:40;;;;;;;10.73;2.85;;;11.60;73.60;;;;;;4944563;28;20130;-75
2023/01/14 00:06:06;;;;;;;8.02;2.53;;;11.60;73.70;;;;;;4943791;28;20410;-74
2023/01/14 00:08:34;;;;;;;10.25;3.47;;;11.50;73.50;;;;;;4940515;28;20134;-75
2023/01/14 00:11:02;;;;;;;8.60;2.35;;;11.50;73.60;;;;;;4944156;28;20043;-78
2023/01/14 00:13:28;;;;;;;11.43;3.40;;;11.50;73.60;;;;;;4946158;28;20057;-76
2023/01/14 00:15:57;;;;;;;10.73;2.60;;;11.60;73.90;;;;;;4959092;28;20046;-74
2023/01/14 00:18:23;;;;;;;10.65;3.38;;;11.60;73.90;;;;;;4946817;28;20039;-75
2023/01/14 00:21:09;;;;;;;10.07;3.17;;;11.60;73.90;;;;;;4958863;28;20129;-76
2023/01/14 00:23:36;;;;;;;10.98;2.53;;;11.60;74.00;;;;;;4940809;28;20051;-75
2023/01/14 00:26:10;;;;;;;9.70;2.78;;;11.60;74.40;;;;;;4957934;28;20475;-74
2023/01/14 00:28:36;;;;;;;9.77;3.00;;;11.60;74.00;;;;;;4942221;28;20128;-74
2023/01/14 00:31:07;;;;;;;8.85;2.83;;;11.60;74.00;;;;;;4951073;28;20596;-77
2023/01/14 00:33:34;;;;;;;9.10;2.25;;;11.70;74.20;;;;;;4944663;28;20641;-76
2023/01/14 00:36:01;;;;;;;8.57;2.65;;;11.70;74.20;;;;;;4958961;28;20044;-75
2023/01/14 00:38:28;;;;;;;11.57;2.53;;;11.70;74.30;;;;;;4945604;28;20394;-75
2023/01/14 00:41:06;;;;;;;13.60;3.47;;;11.70;74.20;;;;;;4959202;28;20549;-78
2023/01/14 00:43:34;;;;;;;9.65;2.15;;;11.70;74.30;;;;;;4960315;28;20031;-77
2023/01/14 00:46:00;;;;;;;12.13;1.90;;;11.80;74.50;;;;;;4944253;28;20035;-76
2023/01/14 00:48:26;;;;;;;10.07;3.05;;;11.70;74.30;;;;;;4944697;28;20055;-75
2023/01/14 00:50:52;;;;;;;9.60;3.35;;;11.80;74.60;;;;;;4959776;28;20390;-74
2023/01/14 00:53:19;;;;;;;7.75;1.80;;;11.80;74.80;;;;;;4944681;28;20031;-75
2023/01/14 00:55:45;;;;;;;6.85;1.70;;;11.90;75.00;;;;;;4943491;28;20164;-75
2023/01/14 00:58:11;;;;;;;5.60;2.05;;;12.00;75.10;;;;;;4944496;28;20035;-75
2023/01/14 01:00:37;;;;;;;7.72;2.22;;;12.10;75.20;;;;;;4944978;28;20028;-74
2023/01/14 01:03:03;;;;;;;5.40;1.83;;;12.20;75.20;;;;;;4944929;28;20554;-75
2023/01/14 01:05:34;;;;;;;4.47;1.52;;;12.40;75.40;;;;;;4947558;28;20122;-74
2023/01/14 01:08:01;;;;;;;6.82;2.65;;;12.50;75.40;;;;;;4944266;28;20054;-75
2023/01/14 01:10:27;;;;;;;7.05;2.17;;;12.50;75.10;;;;;;4944502;28;20032;-75
2023/01/14 01:12:53;;;;;;;6.18;1.92;;;12.60;75.10;;;;;;4944591;28;20098;-75
2023/01/14 01:15:19;;;;;;;11.10;2.15;;;12.70;75.10;;;;;;4942805;28;20051;-74
2023/01/14 01:17:45;;;;;;;4.90;1.85;;;12.80;75.10;;;;;;4944337;28;20039;-75
2023/01/14 01:20:11;;;;;;;7.70;2.13;;;12.80;74.90;;;;;;4944642;28;20269;-77
2023/01/14 01:22:37;;;;;;;5.78;1.80;;;12.90;75.00;;;;;;4958239;28;20031;-75
2023/01/14 01:25:04;;;;;;;6.28;2.03;;;12.90;74.80;;;;;;4945185;28;20043;-74
2023/01/14 01:27:30;;;;;;;5.63;1.70;;;13.00;75.00;;;;;;4958833;28;20110;-74
2023/01/14 01:29:56;;;;;;;4.35;1.40;;;13.10;74.90;;;;;;4944610;28;20470;-75
2023/01/14 01:32:24;;;;;;;4.68;1.58;;;13.10;74.80;;;;;;4965831;28;20039;-76
2023/01/14 01:34:50;;;;;;;6.88;1.75;;;13.20;74.80;;;;;;4951935;28;20115;-75
2023/01/14 01:37:17;;;;;;;6.15;1.73;;;13.20;74.70;;;;;;4941031;28;20110;-75
2023/01/14 01:39:44;;;;;;;3.97;1.40;;;13.20;74.60;;;;;;4949204;28;20035;-75
2023/01/14 01:42:15;;;;;;;6.72;2.47;;;13.30;74.60;;;;;;4944574;28;20049;-74
2023/01/14 01:44:41;;;;;;;4.05;1.20;;;13.30;74.50;;;;;;4945901;28;20505;-74
2023/01/14 01:47:10;;;;;;;4.65;1.05;;;13.40;74.50;;;;;;4961985;28;20027;-72
2023/01/14 01:49:37;;;;;;;4.25;1.42;;;13.40;74.40;;;;;;4960644;28;20027;-75
2023/01/14 01:52:18;;;;;;;5.00;1.75;;;13.50;74.50;;;;;;4946047;28;20043;-74
2023/01/14 01:55:06;;;;;;;5.65;1.63;;;13.50;74.30;;;;;;4956631;28;20063;-75
2023/01/14 01:57:36;;;;;;;2.90;1.00;;;13.50;74.20;;;;;;4960851;28;20046;-75
2023/01/14 02:00:07;;;;;;;4.65;1.70;;;13.60;74.30;;;;;;4960211;28;20469;-74
2023/01/14 02:02:38;;;;;;;4.32;1.38;;;13.60;74.20;;;;;;4945720;28;20043;-75
2023/01/14 02:05:04;;;;;;;2.45;1.25;;;13.60;74.10;;;;;;4945964;28;20118;-75
2023/01/14 02:07:33;;;;;;;2.83;0.88;;;13.60;74.00;;;;;;4960541;28;20491;-75
2023/01/14 02:10:01;;;;;;;4.50;1.00;;;13.70;74.10;;;;;;4946595;28;20463;-75
2023/01/14 02:12:42;;;;;;;5.30;1.25;;;13.70;74.00;;;;;;4961217;28;20059;-75
2023/01/14 02:16:05;;;;;;;3.05;1.17;;;13.70;73.90;;;;;;4944919;28;20052;-76
2023/01/14 02:18:58;;;;;;;2.65;0.85;;;13.70;73.70;;;;;;4901017;29;20332;-74
2023/01/14 02:21:34;;;;;;;3.42;0.95;;;13.80;73.80;;;;;;4902310;29;20092;-75
2023/01/14 02:24:36;;;;;;;3.80;0.95;;;13.80;73.80;;;;;;4934702;28;20051;-75
2023/01/14 02:27:17;;;;;;;4.20;1.48;;;13.80;73.60;;;;;;4958779;28;20031;-76
2023/01/14 02:30:06;;;;;;;2.90;0.90;;;13.80;73.60;;;;;;4956630;28;20027;-75
2023/01/14 02:33:24;;;;;;;4.88;1.88;;;13.80;73.40;;;;;;4964635;28;20066;-76
2023/01/14 02:35:55;;;;;;;3.05;0.70;;;13.80;73.30;;;;;;4886575;29;20055;-75
2023/01/14 02:38:27;;;;;;;3.42;1.27;;;13.80;73.40;;;;;;4945505;28;20035;-75
2023/01/14 02:41:12;;;;;;;2.55;0.65;;;13.90;73.40;;;;;;4967112;28;20373;-75
2023/01/14 02:44:10;;;;;;;3.63;1.17;;;13.80;73.20;;;;;;4963348;28;20407;-76
2023/01/14 02:46:49;;;;;;;1.95;0.90;;;13.80;73.10;;;;;;4969670;23;20074;-79
2023/01/14 02:49:35;;;;;;;2.88;0.98;;;13.80;73.10;;;;;;4977063;28;20069;-79
2023/01/14 02:52:05;;;;;;;3.05;0.80;;;13.80;73.00;;;;;;4990965;28;20053;-79
2023/01/14 02:54:32;;;;;;;2.97;0.80;;;13.90;73.20;;;;;;4982099;28;20047;-78
2023/01/14 02:57:51;;;;;;;2.45;0.77;;;13.90;73.10;;;;;;4964965;28;20034;-78
2023/01/14 03:00:50;;;;;;;2.55;0.73;;;13.90;73.00;;;;;;4981924;28;20125;-79
2023/01/14 03:03:26;;;;;;;3.00;1.20;;;13.90;72.90;;;;;;4995216;28;20073;-79
2023/01/14 03:06:33;;;;;;;2.13;0.70;;;13.90;72.90;;;;;;4981146;28;20113;-80
2023/01/14 03:09:21;;;;;;;2.28;0.52;;;13.90;72.80;;;;;;4976349;28;20058;-79
2023/01/14 03:12:12;;;;;;;4.10;1.27;;;13.90;72.80;;;;;;4987425;28;20034;-79
2023/01/14 03:14:55;;;;;;;2.60;1.15;;;13.90;72.70;;;;;;4980197;28;20169;-79
2023/01/14 03:17:36;;;;;;;2.60;0.90;;;14.00;72.80;;;;;;4974084;28;20031;-79
2023/01/14 03:20:14;;;;;;;4.15;0.70;;;14.00;72.80;;;;;;4986023;28;20045;-78
2023/01/14 03:22:42;;;;;;;1.85;0.38;;;14.00;72.70;;;;;;4986270;28;20117;-78
2023/01/14 03:25:11;;;;;;;1.02;0.50;;;14.00;73.30;;;;;;4966984;28;20126;-78
2023/01/14 03:27:44;;;;;;;4.32;1.05;;;14.00;72.60;;;;;;4975302;28;20057;-78
2023/01/14 03:30:19;;;;;;;2.83;0.77;;;14.00;72.70;;;;;;4971170;28;20207;-80
2023/01/14 03:32:48;;;;;;;4.72;0.70;;;14.00;72.50;;;;;;4968114;28;20034;-79
2023/01/14 03:35:18;;;;;;;1.63;0.77;;;14.00;72.50;;;;;;4985841;28;20070;-79
2023/01/14 03:37:56;;;;;;;1.77;0.90;;;14.10;72.60;;;;;;4987548;28;20094;-78
2023/01/14 03:40:24;;;;;;;1.45;0.70;;;14.10;72.50;;;;;;4968942;28;20063;-78
2023/01/14 03:42:58;;;;;;;2.42;0.75;;;14.10;72.50;;;;;;4969414;28;20034;-79
2023/01/14 03:45:35;;;;;;;4.30;0.90;;;14.10;72.40;;;;;;4986060;28;20066;-78
2023/01/14 03:48:02;;;;;;;2.88;1.30;;;14.10;72.40;;;;;;4982848;28;20057;-80
2023/01/14 03:50:34;;;;;;;2.55;1.70;;;14.10;72.40;;;;;;4982867;28;20407;-80
2023/01/14 03:53:38;;;;;;;3.30;0.90;;;14.10;72.30;;;;;;4968916;28;20026;-79
2023/01/14 03:56:22;;;;;;;2.47;0.65;;;14.10;72.20;;;;;;4980887;28;20062;-79
2023/01/14 03:58:57;;;;;;;2.75;0.88;;;14.10;72.30;;;;;;4984261;28;20105;-78
2023/01/14 04:01:43;;;;;;;1.48;0.77;;;14.10;72.30;;;;;;4968461;28;20648;-79
2023/01/14 04:04:11;;;;;;;2.70;0.85;;;14.10;72.20;;;;;;4974220;28;20034;-79
2023/01/14 04:06:38;;;;;;;2.05;0.70;;;14.00;72.00;;;;;;4968333;28;20026;-79
2023/01/14 04:09:08;;;;;;;1.52;0.73;;;14.10;72.10;;;;;;4967260;28;20402;-80
2023/01/14 04:11:35;;;;;;;1.52;0.73;;;14.10;72.10;;;;;;4981147;28;20053;-79
2023/01/14 04:16:46;;;;;;;2.42;0.82;;;14.10;72.10;;;;;;4971457;28;20049;-79
2023/01/14 04:19:12;;;;;;;3.42;0.75;;;14.00;71.90;;;;;;4968739;28;20521;-80
2023/01/14 04:21:38;;;;;;;2.97;0.52;;;14.10;72.00;;;;;;4972088;28;20027;-79
2023/01/14 04:24:04;;;;;;;2.33;0.57;;;14.10;72.00;;;;;;4969231;28;20137;-80
2023/01/14 04:26:30;;;;;;;2.00;0.50;;;14.10;71.90;;;;;;4972586;28;20049;-79
2023/01/14 04:28:56;;;;;;;2.65;1.05;;;14.10;71.90;;;;;;4982714;28;20121;-80
2023/01/14 04:31:22;;;;;;;0.73;0.50;;;14.10;71.80;;;;;;4966332;28;20030;-77
2023/01/14 04:33:48;;;;;;;2.78;0.70;;;14.10;71.80;;;;;;4969761;28;20050;-79
2023/01/14 04:36:14;;;;;;;1.75;0.88;;;14.10;71.80;;;;;;4970706;28;20118;-79
2023/01/14 04:38:41;;;;;;;3.42;1.48;;;14.10;71.70;;;;;;4986701;28;20122;-79
2023/01/14 04:42:25;;;;;;;2.28;0.98;;;14.10;71.70;;;;;;4985977;28;20127;-81
2023/01/14 04:43:53;;;;;;;1.73;0.90;;;14.10;71.70;;;;;;4965460;28;20047;-78
2023/01/14 04:46:19;;;;;;;2.40;0.75;;;14.10;71.70;;;;;;4972182;28;20042;-79
2023/01/14 04:48:47;;;;;;;1.17;0.88;;;14.10;71.60;;;;;;4967684;28;20137;-79
2023/01/14 04:51:13;;;;;;;5.68;2.08;;;14.10;71.60;;;;;;4967213;28;20102;-79
2023/01/14 04:53:39;;;;;;;2.67;1.02;;;14.10;71.60;;;;;;4987789;28;20046;-78
2023/01/14 04:56:05;;;;;;;1.83;0.65;;;14.10;71.60;;;;;;4982908;28;20122;-78
2023/01/14 04:58:31;;;;;;;1.80;0.73;;;14.10;72.10;;;;;;4981046;28;20034;-78
2023/01/14 05:00:57;;;;;;;3.28;0.88;;;14.10;71.50;;;;;;4982538;28;20073;-79
2023/01/14 05:03:23;;;;;;;2.70;0.60;;;14.10;71.50;;;;;;4971964;28;20558;-78
2023/01/14 05:05:49;;;;;;;1.38;0.47;;;14.10;71.50;;;;;;4975120;28;20038;-80
2023/01/14 05:08:15;;;;;;;1.00;0.50;;;14.10;71.50;;;;;;4983086;28;20056;-78
2023/01/14 05:10:42;;;;;;;2.67;0.70;;;14.10;71.50;;;;;;4965416;28;20027;-78
2023/01/14 05:13:11;;;;;;;2.53;0.60;;;14.10;71.50;;;;;;4970016;28;20093;-78
2023/01/14 05:15:39;;;;;;;2.83;0.70;;;14.10;71.50;;;;;;4986204;28;20136;-77
2023/01/14 05:18:07;;;;;;;1.98;0.68;;;14.10;71.50;;;;;;4973054;28;20019;-78
2023/01/14 05:20:34;;;;;;;1.48;0.75;;;14.10;71.50;;;;;;4970590;28;20064;-79
2023/01/14 05:23:02;;;;;;;2.20;0.57;;;14.10;71.50;;;;;;4974154;28;20489;-78
2023/01/14 05:25:31;;;;;;;1.35;0.40;;;14.10;71.50;;;;;;4985109;28;20045;-77
2023/01/14 05:28:03;;;;;;;1.88;0.70;;;14.20;71.60;;;;;;4990002;28;20162;-78
2023/01/14 05:30:30;;;;;;;2.85;0.60;;;14.20;72.10;;;;;;4985120;28;20679;-78
2023/01/14 05:32:56;;;;;;;3.50;0.98;;;14.20;71.60;;;;;;4974547;28;20539;-78
2023/01/14 05:35:22;;;;;;;2.05;0.52;;;14.20;71.60;;;;;;4971622;28;20066;-78
2023/01/14 05:37:49;;;;;;;3.08;1.08;;;14.30;71.70;;;;;;4973440;28;20031;-78
2023/01/14 05:40:15;;;;;;;2.88;0.50;;;14.30;71.70;;;;;;4973365;28;20030;-78
2023/01/14 05:45:37;;;;;;;3.13;0.80;;;14.40;71.90;;;;;;4966003;28;20165;-79
2023/01/14 05:48:05;;;;;;;3.35;0.63;;;14.40;71.80;;;;;;4982993;28;20116;-79
2023/01/14 05:50:31;;;;;;;1.95;0.63;;;14.40;71.80;;;;;;4972376;28;20041;-78
2023/01/14 05:52:57;;;;;;;1.40;0.70;;;14.40;71.80;;;;;;4964755;28;20121;-78
2023/01/14 05:55:23;;;;;;;3.78;1.20;;;14.40;71.80;;;;;;4983653;28;20241;-78
2023/01/14 05:57:50;;;;;;;3.35;0.73;;;14.40;71.80;;;;;;4983359;28;20031;-78
2023/01/14 06:08:31;;;;;;;3.42;0.80;;;14.50;71.90;;;;;;4967471;28;20049;-78
2023/01/14 06:10:58;;;;;;;2.10;0.65;;;14.50;71.90;;;;;;4967289;28;20030;-77
2023/01/14 06:13:24;;;;;;;1.42;0.70;;;14.60;72.00;;;;;;4969527;28;20022;-78
2023/01/14 06:15:52;;;;;;;4.40;1.00;;;14.60;72.10;;;;;;4978975;28;20061;-78
2023/01/14 06:18:23;;;;;;;1.73;0.80;;;14.60;72.00;;;;;;4966107;28;20353;-78
2023/01/14 06:20:53;;;;;;;0.68;0.40;;;14.60;72.00;;;;;;4965996;28;20038;-78
2023/01/14 06:23:21;;;;;;;1.58;0.70;;;14.70;72.20;;;;;;4967317;28;20041;-78
2023/01/14 06:25:48;;;;;;;2.33;0.80;;;14.70;72.10;;;;;;4967903;28;20492;-78
2023/01/14 06:28:16;;;;;;;2.15;0.60;;;14.70;72.10;;;;;;4968273;28;20037;-78
2023/01/14 06:30:45;;;;;;;1.42;0.60;;;14.70;72.10;;;;;;4962415;28;20062;-78
2023/01/14 06:33:11;;;;;;;3.05;0.80;;;14.80;72.30;;;;;;4965545;28;20478;-78
2023/01/14 06:35:43;;;;;;;2.25;1.13;;;14.90;72.40;;;;;;4979892;28;20118;-78
2023/01/14 06:38:10;;;;;;;1.23;0.50;;;14.90;72.40;;;;;;4965324;28;20030;-77
2023/01/14 06:40:38;;;;;;;1.70;0.70;;;14.90;72.30;;;;;;4983312;28;20268;-80
2023/01/14 06:43:06;;;;;;;1.48;0.60;;;15.00;72.40;;;;;;4972562;28;20034;-81
2023/01/14 06:45:33;;;;;;;6.88;0.88;;;15.00;72.40;;;;;;4967773;28;20322;-85
2023/01/14 06:48:02;;;;;;;11.50;5.05;;;15.00;72.40;;;;;;4977139;28;20613;-85
2023/01/14 06:50:28;;;;;;;5.35;2.83;;;15.10;72.60;;;;;;4968495;28;20482;-85
2023/01/14 06:53:02;;;;;;;4.47;2.00;;;15.10;72.80;;;;;;4969772;28;20270;-84
2023/01/14 06:55:28;;;;;;;2.95;1.60;;;15.10;73.00;;;;;;4978606;28;20120;-84
2023/01/14 06:57:54;;;;;;;3.92;1.77;;;15.10;73.00;;;;;;4965709;28;20039;-82
2023/01/14 07:00:20;;;;;;;11.77;6.78;;;15.20;73.20;;;;;;4982560;28;20058;-84
2023/01/14 07:02:46;;;;;;;10.13;4.47;;;15.20;73.20;;;;;;4968993;28;20027;-82
2023/01/14 07:05:14;;;;;;;9.07;2.20;;;15.30;73.50;;;;;;4971173;28;20035;-88
2023/01/14 07:07:40;;;;;;;4.80;2.08;;;15.30;73.50;;;;;;4980648;28;20049;-84
2023/01/14 07:10:06;;;;;;;6.30;2.90;;;15.30;73.60;;;;;;4969199;28;20486;-83
2023/01/14 07:12:32;;;;;;;3.22;1.42;;;15.30;73.50;;;;;;4988421;28;20169;-83
2023/01/14 07:14:58;;;;;;;4.47;1.95;;;15.40;73.80;;;;;;4989140;28;20485;-82
2023/01/14 07:17:24;;;;;;;2.85;1.55;;;15.40;73.70;;;;;;4990298;28;20038;-83
2023/01/14 07:19:50;;;;;;;3.47;1.70;;;15.40;73.80;;;;;;4976294;28;20050;-84
2023/01/14 07:22:17;;;;;;;6.10;1.20;;;15.50;74.00;;;;;;4981366;28;20018;-84
2023/01/14 07:24:45;;;;;;;3.70;1.55;;;15.50;74.00;;;;;;4991176;28;20023;-83
2023/01/14 07:27:10;;;;;;;2.53;1.80;;;15.60;74.20;;;;;;4983130;28;20035;-87
2023/01/14 07:29:36;;;;;;;3.30;1.15;;;15.60;74.20;;;;;;4984896;28;20047;-83
2023/01/14 07:32:02;;;;;;;1.85;1.00;;;15.70;74.30;;;;;;4966481;28;20050;-83
2023/01/14 07:34:28;;;;;;;2.88;1.30;;;15.70;74.30;;;;;;4984920;28;20413;-83
2023/01/14 07:36:55;;;;;;;6.68;1.23;;;15.70;74.20;;;;;;4969603;28;20114;-82
2023/01/14 07:39:20;;;;;;;6.00;1.67;;;15.70;74.20;;;;;;4980391;28;20131;-93
2023/01/14 07:41:46;;;;;;;3.40;0.88;;;15.80;74.30;;;;;;4981686;28;20477;-78
2023/01/14 07:44:23;;;;;;;2.17;0.70;;;15.80;74.30;;;;;;4964480;28;20034;-83
2023/01/14 07:46:55;;;;;;;3.17;1.38;;;15.80;74.30;;;;;;4967481;28;20047;-87
2023/01/14 07:49:23;;;;;;;3.60;1.47;;;15.90;74.60;;;;;;4962511;28;20082;-86
2023/01/14 07:51:49;;;;;;;3.00;0.85;;;15.90;74.50;;;;;;4967164;28;20022;-86
2023/01/14 07:54:17;;;;;;;2.38;0.52;;;15.90;74.60;;;;;;4979722;28;20046;-82
2023/01/14 07:56:44;;;;;;;1.25;0.60;;;15.80;74.40;;;;;;4977088;28;20121;-83
2023/01/14 07:59:11;;;;;;;5.57;0.60;;;15.90;74.70;;;;;;4978486;28;20256;-85
2023/01/14 08:01:37;;;;;;;1.80;0.70;;;15.90;74.80;;;;;;4963832;28;20042;-84
2023/01/14 08:04:04;;;;;;;4.07;0.50;;;15.90;74.90;;;;;;4967606;28;20351;-84
2023/01/14 08:06:30;;;;;;;2.00;0.60;;;15.90;75.00;;;;;;4965658;28;20035;-81
2023/01/14 08:08:58;;;;;;;2.88;1.65;;;15.90;75.10;;;;;;4969141;28;20084;-78
2023/01/14 08:11:28;;;;;;;5.65;1.42;;;15.90;75.20;;;;;;4972216;28;20058;-95
2023/01/14 08:13:54;;;;;;;6.57;1.80;;;15.90;75.30;;;;;;4977890;28;20097;-92
2023/01/14 08:16:23;;;;;;;7.03;1.20;;;16.00;75.60;;;;;;4982256;28;20574;-94
2023/01/14 08:18:49;;;;;;;2.80;1.17;;;16.00;75.70;;;;;;4979255;28;20045;-87
2023/01/14 08:21:15;;;;;;;3.30;0.85;;;16.00;75.70;;;;;;4963358;28;20034;-85
2023/01/14 08:23:41;;;;;;;1.52;0.80;;;16.00;75.70;;;;;;4967573;28;20038;-82
2023/01/14 08:26:11;;;;;;;1.27;0.70;;;16.00;75.70;;;;;;4964596;28;20034;-82
2023/01/14 08:28:38;;;;;;;1.17;0.50;;;16.00;75.70;;;;;;4968428;28;20026;-84
2023/01/14 08:31:07;;;;;;;1.98;0.70;;;15.90;75.60;;;;;;4978786;28;20062;-84
2023/01/14 08:33:35;;;;;;;2.15;0.57;;;15.90;75.60;;;;;;4968488;28;20035;-83
2023/01/14 08:36:05;;;;;;;1.15;0.88;;;15.80;75.60;;;;;;4963709;28;20304;-86
2023/01/14 08:38:35;;;;;;;1.52;0.50;;;15.80;76.20;;;;;;4967157;28;20026;-93
2023/01/14 08:41:06;;;;;;;1.17;0.50;;;15.70;75.60;;;;;;4984756;28;20063;-91
2023/01/14 08:43:32;;;;;;;0.85;0.70;;;15.70;75.60;;;;;;4975768;28;20030;-89
2023/01/14 08:46:00;;;;;;;0.60;0.40;;;15.60;75.60;;;;;;4983650;28;20040;-88
2023/01/14 08:48:27;;;;;;;1.50;0.65;;;15.60;76.10;;;;;;4969071;28;20038;-89
2023/01/14 08:50:54;;;;;;;2.42;0.65;;;15.50;75.50;;;;;;4969612;28;20030;-90
2023/01/14 08:53:20;;;;;;;2.38;1.25;;;15.40;75.40;;;;;;4973345;28;20046;-90
2023/01/14 08:55:45;;;;;;;5.53;2.03;;;15.40;75.50;;;;;;4991355;28;20493;-90
2023/01/14 08:58:13;;;;;;;4.97;1.00;;;15.30;75.40;;;;;;4978106;28;20058;-82
2023/01/14 09:00:39;;;;;;;5.10;1.00;;;15.30;75.50;;;;;;4981871;28;20121;-92
2023/01/14 09:03:05;;;;;;;5.05;1.00;;;15.20;75.30;;;;;;4979784;28;20512;-93
2023/01/14 09:05:32;;;;;;;3.50;1.20;;;15.20;75.40;;;;;;4987951;28;20034;-82
2023/01/14 09:17:06;;;;;;;5.15;1.08;;;15.10;76.00;;;;;;4968352;28;20046;-79
2023/01/14 09:19:07;;;;;;;3.95;1.00;;;15.20;76.20;;;;;;4965691;28;20105;-82
2023/01/14 09:21:33;;;;;;;5.97;1.15;;;15.30;76.30;;;;;;4972545;28;20041;-84
2023/01/14 09:23:59;;;;;;;5.85;1.65;;;15.30;76.20;;;;;;4969954;28;20413;-79
2023/01/14 09:26:25;;;;;;;7.30;1.55;;;15.50;76.40;;;;;;4963760;28;20034;-78
2023/01/14 09:28:51;;;;;;;5.10;2.25;;;15.50;76.20;;;;;;4971166;28;20450;-79
2023/01/14 09:31:17;;;;;;;6.40;1.80;;;15.50;75.90;;;;;;4964678;28;20031;-80
2023/01/14 09:33:43;;;;;;;6.65;1.70;;;15.50;75.80;;;;;;4968606;28;20041;-81
2023/01/14 09:36:09;;;;;;;9.02;2.08;;;15.50;75.70;;;;;;4966888;28;20517;-81
2023/01/14 09:38:35;;;;;;;3.80;1.20;;;15.50;75.60;;;;;;4962945;28;20027;-81
2023/01/14 09:41:01;;;;;;;10.25;1.58;;;15.50;75.60;;;;;;4979851;28;20034;-81
2023/01/14 09:43:30;;;;;;;9.27;2.13;;;15.50;75.50;;;;;;4965111;28;20575;-80
2023/01/14 09:45:59;;;;;;;6.45;2.25;;;15.40;75.30;;;;;;4965164;28;20031;-80
2023/01/14 09:48:27;;;;;;;9.25;2.22;;;15.40;75.30;;;;;;4978703;28;20113;-80
2023/01/14 09:51:25;;;;;;;12.98;1.92;;;15.40;75.30;;;;;;4964710;28;20381;-79
2023/01/14 09:54:18;;;;;;;8.45;1.70;;;15.40;75.30;;;;;;4976947;28;20526;-80
2023/01/14 09:57:07;;;;;;;8.88;1.95;;;15.40;75.30;;;;;;4963094;28;20528;-80
2023/01/14 09:59:39;;;;;;;13.05;2.03;;;15.40;75.20;;;;;;4960509;28;20031;-80
2023/01/14 10:02:29;;;;;;;12.32;3.00;;;15.40;75.10;;;;;;4978095;28;20042;-80
2023/01/14 10:05:16;;;;;;;9.02;1.98;;;15.40;75.00;;;;;;4964434;28;20293;-79
2023/01/14 10:07:43;;;;;;;8.25;2.17;;;15.40;75.00;;;;;;4968425;28;20037;-80
2023/01/14 10:10:26;;;;;;;7.22;2.28;;;15.40;75.00;;;;;;4965489;28;20067;-83
2023/01/14 10:12:55;;;;;;;12.80;2.38;;;15.40;74.90;;;;;;4970387;28;20046;-80
2023/01/14 10:15:29;;;;;;;8.88;2.10;;;15.40;75.00;;;;;;4963386;28;20041;-79
2023/01/14 10:18:01;;;;;;;7.25;2.85;;;15.40;74.90;;;;;;4966551;28;20113;-79
2023/01/14 10:20:53;;;;;;;8.00;2.70;;;15.40;74.80;;;;;;4980676;28;20034;-80
2023/01/14 10:23:37;;;;;;;6.82;2.28;;;15.50;74.80;;;;;;4956224;28;20039;-80
2023/01/14 10:26:15;;;;;;;9.98;2.88;;;15.50;74.60;;;;;;4981589;28;20046;-79
2023/01/14 10:28:43;;;;;;;8.75;1.77;;;15.50;74.50;;;;;;4978242;28;20027;-80
2023/01/14 10:31:33;;;;;;;11.38;3.72;;;15.50;74.50;;;;;;4969133;28;20047;-80
2023/01/14 10:34:00;;;;;;;11.27;2.55;;;15.50;74.40;;;;;;4966687;28;20328;-80
2023/01/14 10:36:30;;;;;;;10.38;2.67;;;15.50;74.40;;;;;;4970170;28;20035;-80
2023/01/14 10:38:57;;;;;;;9.00;2.20;;;15.50;74.40;;;;;;4966273;28;20069;-79
2023/01/14 10:44:26;;;;;;;8.55;2.17;;;15.40;74.10;;;;;;4963205;28;20565;-79
2023/01/14 10:47:08;;;;;;;12.38;2.63;;;15.50;74.20;;;;;;4962189;28;20585;-80
2023/01/14 10:50:13;;;;;;;9.27;2.22;;;15.40;74.00;;;;;;4961385;28;20046;-79
2023/01/14 10:52:42;;;;;;;7.90;2.17;;;15.40;74.00;;;;;;4973897;28;20034;-80
2023/01/14 10:55:11;;;;;;;9.73;2.95;;;15.40;74.20;;;;;;4974474;28;20154;-80
2023/01/14 10:57:47;;;;;;;7.78;2.20;;;15.40;74.30;;;;;;4962122;28;20053;-79
2023/01/14 11:00:34;;;;;;;8.15;2.08;;;15.50;74.50;;;;;;4980124;28;20489;-81
2023/01/14 11:03:03;;;;;;;7.50;2.10;;;15.60;74.50;;;;;;4977985;28;20093;-80
2023/01/14 11:05:37;;;;;;;11.40;3.15;;;15.80;74.60;;;;;;4966362;28;20317;-80
2023/01/14 11:08:23;;;;;;;8.68;2.88;;;15.90;74.50;;;;;;4963510;28;20059;-80
2023/01/14 11:10:58;;;;;;;9.95;2.63;;;16.00;74.20;;;;;;4969160;28;20039;-80
2023/01/14 11:13:36;;;;;;;10.48;3.75;;;16.10;74.00;;;;;;4962576;28;20043;-80
2023/01/14 11:16:02;;;;;;;17.90;3.65;;;16.10;74.30;;;;;;4981882;28;20038;-80
2023/01/14 11:18:33;;;;;;;15.85;4.80;;;16.10;73.70;;;;;;4979964;28;20038;-79
2023/01/14 11:21:12;;;;;;;6.60;2.00;;;16.00;73.60;;;;;;4985645;28;20042;-79
2023/01/14 11:23:43;;;;;;;10.13;2.85;;;16.00;73.60;;;;;;4962347;28;20101;-79
2023/01/14 11:26:24;;;;;;;10.18;1.60;;;15.90;73.70;;;;;;4962007;28;20779;-79
2023/01/14 11:28:52;;;;;;;5.20;1.60;;;16.00;74.10;;;;;;4963930;28;20037;-80
2023/01/14 11:31:33;;;;;;;4.57;1.55;;;16.00;74.10;;;;;;4960971;28;20054;-81
2023/01/14 11:33:59;;;;;;;4.43;1.77;;;16.10;74.10;;;;;;4962856;28;20705;-80
2023/01/14 11:36:29;;;;;;;6.47;1.83;;;16.10;73.90;;;;;;4966694;28;20050;-80
2023/01/14 11:38:58;;;;;;;4.60;2.25;;;16.20;73.90;;;;;;4983862;28;20038;-81
2023/01/14 11:41:38;;;;;;;7.45;2.10;;;16.30;73.90;;;;;;4961681;28;20038;-80
2023/01/14 11:44:19;;;;;;;3.42;1.20;;;16.30;73.60;;;;;;4976641;28;20043;-78
2023/01/14 11:47:00;;;;;;;4.97;1.55;;;16.40;73.60;;;;;;4976562;28;20085;-78
2023/01/14 11:49:27;;;;;;;7.60;2.17;;;16.40;73.50;;;;;;4960990;28;20505;-78
2023/01/14 11:51:58;;;;;;;4.05;1.40;;;16.40;73.50;;;;;;4962336;28;20054;-80
2023/01/14 11:54:31;;;;;;;5.10;1.20;;;16.50;73.50;;;;;;4980492;28;20089;-78
2023/01/14 11:56:57;;;;;;;6.03;1.58;;;16.50;73.60;;;;;;4961751;28;20494;-80
2023/01/14 11:59:28;;;;;;;5.47;2.03;;;16.50;73.30;;;;;;4970994;28;20413;-79
2023/01/14 12:02:18;;;;;;;4.53;1.50;;;16.50;73.20;;;;;;4961813;28;20178;-80
2023/01/14 12:04:57;;;;;;;4.53;1.23;;;16.50;73.10;;;;;;4972204;28;20026;-81
2023/01/14 12:07:35;;;;;;;5.72;1.65;;;16.50;73.00;;;;;;4967016;28;20048;-80
2023/01/14 12:10:22;;;;;;;8.18;2.63;;;16.50;72.90;;;;;;4972178;28;20030;-80
2023/01/14 12:19:31;;;;;;;4.43;1.60;;;16.50;72.90;;;;;;4970101;28;20505;-82
2023/01/14 12:22:35;;;;;;;3.72;1.10;;;16.50;73.40;;;;;;4965043;28;20066;-81
2023/01/14 12:25:17;;;;;;;3.75;1.85;;;16.50;72.80;;;;;;4967730;28;20841;-81
2023/01/14 12:28:06;;;;;;;5.00;2.20;;;16.50;72.70;;;;;;4967075;28;20035;-81
2023/01/14 12:30:47;;;;;;;3.50;1.15;;;16.60;72.80;;;;;;4959710;28;20030;-80
2023/01/14 12:33:36;;;;;;;5.32;1.30;;;16.60;72.60;;;;;;4957455;28;20573;-81
2023/01/14 12:36:48;;;;;;;4.68;1.10;;;16.70;72.60;;;;;;4975730;28;20031;-80
2023/01/14 12:45:44;;;;;;;2.60;1.60;;;16.90;72.30;;;;;;4962969;28;20096;-81
2023/01/14 12:48:30;;;;;;;3.85;0.90;;;17.00;72.30;;;;;;4958116;28;20475;-81
2023/01/14 12:51:26;;;;;;;3.78;1.00;;;17.10;72.20;;;;;;4980567;28;20399;-79
2023/01/14 12:54:03;;;;;;;5.78;1.00;;;17.10;71.90;;;;;;4965463;28;20324;-82
2023/01/14 12:56:33;;;;;;;1.98;0.85;;;17.20;71.90;;;;;;4980631;28;20039;-80
2023/01/14 12:59:07;;;;;;;2.30;0.93;;;17.30;71.90;;;;;;4978861;28;20038;-81
2023/01/14 13:01:42;;;;;;;2.95;1.10;;;17.30;71.70;;;;;;4966624;28;20054;-89
2023/01/14 13:04:34;;;;;;;6.32;1.02;;;17.40;71.40;;;;;;4969711;28;20031;-93
2023/01/14 13:07:03;;;;;;;4.00;1.02;;;17.50;71.20;;;;;;4977139;28;20027;-92
2023/01/14 13:09:43;;;;;;;2.50;0.77;;;17.50;71.10;;;;;;4967160;28;20063;-81
2023/01/14 13:12:35;;;;;;;3.75;0.75;;;17.50;70.90;;;;;;4962239;28;20034;-84
2023/01/14 13:15:20;;;;;;;3.15;0.70;;;17.40;70.50;;;;;;4971624;28;20054;-80
2023/01/14 13:17:55;;;;;;;2.38;0.70;;;17.40;70.60;;;;;;4962002;28;20042;-82
2023/01/14 13:20:30;;;;;;;1.73;0.65;;;17.30;70.30;;;;;;4980603;28;20058;-86
2023/01/14 13:22:57;;;;;;;4.47;0.43;;;17.20;70.20;;;;;;4967375;28;20046;-88
2023/01/14 13:25:38;;;;;;;2.00;0.80;;;17.20;70.40;;;;;;4974793;28;20117;-85
2023/01/14 13:28:27;;;;;;;5.03;1.55;;;17.20;70.10;;;;;;4980758;28;20141;-87
2023/01/14 13:31:01;;;;;;;1.55;0.60;;;17.20;69.80;;;;;;4978881;28;20034;-84
2023/01/14 13:33:32;;;;;;;2.60;0.55;;;17.10;69.60;;;;;;4979211;28;20038;-83
2023/01/14 13:36:10;;;;;;;2.58;0.90;;;17.10;69.50;;;;;;4968843;28;20051;-86
2023/01/14 13:38:57;;;;;;;4.32;0.70;;;17.00;69.10;;;;;;4980693;28;20223;-86
2023/01/14 13:41:43;;;;;;;3.63;1.00;;;16.90;69.00;;;;;;4968346;28;20770;-87
2023/01/14 13:44:39;;;;;;;1.55;0.63;;;16.90;68.90;;;;;;4984779;28;20034;-84
2023/01/14 13:47:20;;;;;;;2.88;0.73;;;16.80;68.70;;;;;;4988395;28;20055;-85
2023/01/14 13:50:00;;;;;;;8.25;1.60;;;16.70;68.90;;;;;;4986424;28;20038;-85
2023/01/14 13:52:29;;;;;;;2.60;0.85;;;16.70;69.20;;;;;;4982594;28;20035;-89